Salt Lake City, Utah
Traffic Map
Current Weather Conditions
Salt Lake City, Utah
Few Clouds
Few Clouds
66°
Feels Like: 66°
Wind Chill: 66° Ceiling: Unl
Heat Index: 66° Visibility: 10mi
Dew Point: 39° Wind: 5mph
Humidity: 37% Direction: 60° (ENE)
Pressure: 29.91in Gusts: 0mph
Raw Report DataKSLC 210153Z 06004KT 10SM FEW120 19/04 A2991 RMK AO2 SLP095 T01890039
Traffic Incident Summary
Active as of:
Severity:
Category:
InformationThere was an issue retrieving the traffic information for this location. Please try a different location or try again shortly.
Advertisements
Track Severe Weather on mobile